Time;durP1;ratioP1;P1;durP2;ratioP2;P2;SDS_P1;SDS_P2;PMS_P1;PMS_P2;Temp;Humidity;BMP_temperature;BMP_pressure;BME280_temperature;BME280_humidity;BME280_pressure;Samples;Min_cycle;Max_cycle;Signal;HPM_P1;HPM_P2
2022/07/30 00:02:09;;;;;;;10.57;3.38;;;;;;;21.17;52.30;101731.38;5107804;28;20048;-67
2022/07/30 00:04:37;;;;;;;6.68;2.30;;;;;;;21.15;52.29;101727.25;5112306;28;20056;-67
2022/07/30 00:07:05;;;;;;;5.88;2.30;;;;;;;21.13;52.42;101725.63;5113533;28;20050;-66
2022/07/30 00:09:33;;;;;;;7.40;2.47;;;;;;;21.08;52.65;101717.41;5110103;28;20075;-66
2022/07/30 00:12:03;;;;;;;10.80;3.17;;;;;;;21.12;52.62;101723.16;5113362;28;20051;-66
2022/07/30 00:14:31;;;;;;;8.88;3.38;;;;;;;21.11;52.93;101714.13;5100739;28;20067;-66
2022/07/30 00:17:00;;;;;;;7.80;2.72;;;;;;;21.10;53.04;101722.59;5114546;28;20052;-66
2022/07/30 00:19:30;;;;;;;8.05;2.55;;;;;;;21.10;52.97;101706.19;5094283;28;20040;-66
2022/07/30 00:21:58;;;;;;;9.77;2.65;;;;;;;21.09;52.86;101707.28;5113778;28;20048;-66
2022/07/30 00:24:26;;;;;;;6.65;2.58;;;;;;;21.08;53.10;101711.13;5106123;28;20052;-67
2022/07/30 00:26:53;;;;;;;11.90;2.90;;;;;;;21.07;52.91;101713.03;5114246;28;20075;-66
2022/07/30 00:29:21;;;;;;;8.70;3.17;;;;;;;21.06;53.30;101708.66;5109168;28;20048;-66
2022/07/30 00:31:49;;;;;;;4.68;2.40;;;;;;;20.94;53.19;101690.88;5106786;28;20120;-66
2022/07/30 00:34:18;;;;;;;5.55;2.20;;;;;;;21.05;52.88;101714.41;5109974;28;20359;-66
2022/07/30 00:36:46;;;;;;;4.88;2.38;;;;;;;21.04;53.06;101707.28;5110550;28;20051;-66
2022/07/30 00:39:14;;;;;;;6.30;2.28;;;;;;;21.03;53.29;101714.66;5108857;28;20040;-66
2022/07/30 00:41:58;;;;;;;7.63;2.40;;;;;;;20.98;53.44;101706.47;5108828;28;20090;-66
2022/07/30 00:44:27;;;;;;;6.15;2.63;;;;;;;21.01;53.33;101716.03;5105710;28;20075;-66
2022/07/30 00:46:55;;;;;;;8.73;3.08;;;;;;;20.84;53.89;101699.03;5107734;28;20071;-66
2022/07/30 00:49:25;;;;;;;9.70;3.17;;;;;;;20.97;54.00;101715.75;5108742;28;20048;-66
2022/07/30 00:51:53;;;;;;;10.70;3.03;;;;;;;20.96;53.96;101719.56;5101655;28;20071;-66
2022/07/30 00:54:21;;;;;;;6.90;2.97;;;;;;;20.94;54.48;101708.09;5113108;28;20093;-66
2022/07/30 00:56:50;;;;;;;9.32;3.42;;;;;;;20.95;54.39;101711.63;5106687;28;20054;-67
2022/07/30 00:59:17;;;;;;;6.00;3.15;;;;;;;20.92;54.55;101709.44;5113603;28;20058;-66
2022/07/30 01:01:45;;;;;;;7.82;2.63;;;;;;;20.91;54.30;101707.81;5099745;28;20542;-67
2022/07/30 01:04:13;;;;;;;8.52;3.65;;;;;;;20.89;54.50;101708.06;5114336;28;20104;-66
2022/07/30 01:06:42;;;;;;;7.55;3.05;;;;;;;20.88;54.60;101709.16;5110134;28;20512;-67
2022/07/30 01:09:10;;;;;;;7.00;2.95;;;;;;;20.87;54.53;101707.53;5101578;28;20062;-66
2022/07/30 01:11:40;;;;;;;7.80;2.85;;;;;;;20.86;54.49;101705.88;5110418;28;20087;-67
2022/07/30 01:14:09;;;;;;;7.93;3.20;;;;;;;20.84;54.57;101704.50;5108626;28;20044;-66
2022/07/30 01:16:40;;;;;;;8.10;3.28;;;;;;;20.82;54.87;101710.25;5111071;28;20051;-66
2022/07/30 01:22:10;;;;;;;7.88;3.28;;;;;;;20.71;54.99;101689.47;5113498;28;20051;-67
2022/07/30 01:24:42;;;;;;;12.93;4.20;;;;;;;20.72;55.41;101694.69;5100882;28;20044;-66
2022/07/30 01:27:14;;;;;;;9.48;3.85;;;;;;;20.76;55.18;101708.63;5112330;28;20052;-66
2022/07/30 01:29:47;;;;;;;7.60;3.25;;;;;;;20.77;55.32;101707.53;5109629;28;20043;-66
2022/07/30 01:32:17;;;;;;;6.55;3.50;;;;;;;20.75;55.56;101701.50;5109774;28;20051;-66
2022/07/30 01:34:47;;;;;;;9.50;3.90;;;;;;;20.73;55.09;101701.78;5113147;28;20047;-66
2022/07/30 01:37:16;;;;;;;7.40;3.40;;;;;;;20.72;55.03;101715.72;5101006;28;20075;-67
2022/07/30 01:39:48;;;;;;;6.72;3.13;;;;;;;20.66;55.15;101695.75;5114544;28;20047;-66
2022/07/30 01:42:19;;;;;;;9.05;3.67;;;;;;;20.71;55.39;101705.88;5102851;28;20052;-66
2022/07/30 01:44:49;;;;;;;8.50;3.05;;;;;;;20.69;54.99;101705.31;5101760;28;20052;-66
2022/07/30 01:47:18;;;;;;;9.10;3.65;;;;;;;20.68;55.32;101703.69;5110755;28;20146;-66
2022/07/30 01:49:48;;;;;;;4.72;2.90;;;;;;;20.67;55.18;101711.06;5108838;28;20060;-66
2022/07/30 01:52:17;;;;;;;10.98;3.88;;;;;;;20.66;55.51;101706.69;5099161;28;20044;-67
2022/07/30 01:54:46;;;;;;;7.95;3.72;;;;;;;20.65;55.33;101706.94;5111952;28;20070;-67
2022/07/30 01:57:19;;;;;;;8.27;4.00;;;;;;;20.63;55.74;101715.41;5108689;28;20044;-67
2022/07/30 01:59:50;;;;;;;9.68;4.65;;;;;;;20.62;55.75;101715.69;5106888;28;20044;-67
2022/07/30 02:02:18;;;;;;;7.75;3.10;;;;;;;20.59;55.89;101717.03;5113377;28;20044;-67
2022/07/30 02:04:47;;;;;;;10.07;4.38;;;;;;;20.52;55.89;101708.25;5104722;28;20068;-67
2022/07/30 02:07:21;;;;;;;9.25;3.83;;;;;;;20.57;55.79;101718.38;5112247;28;20043;-68
2022/07/30 02:09:55;;;;;;;9.90;3.72;;;;;;;20.54;56.08;101710.72;5101591;28;20047;-68
2022/07/30 02:12:28;;;;;;;9.20;3.80;;;;;;;20.55;56.06;101710.47;5109264;28;20067;-67
2022/07/30 02:15:06;;;;;;;11.60;4.10;;;;;;;20.53;55.86;101709.91;5109383;28;20055;-67
2022/07/30 02:17:39;;;;;;;5.53;3.53;;;;;;;20.52;56.08;101713.72;5103148;28;20083;-67
2022/07/30 02:20:14;;;;;;;7.57;3.60;;;;;;;20.51;56.18;101714.81;5112981;28;20048;-67
2022/07/30 02:22:46;;;;;;;8.55;4.18;;;;;;;20.50;55.80;101713.16;5100550;28;20080;-67
2022/07/30 02:25:18;;;;;;;6.10;3.20;;;;;;;20.48;55.95;101712.63;5113397;28;20055;-67
2022/07/30 02:27:52;;;;;;;8.25;3.45;;;;;;;20.48;56.32;101717.25;5112480;28;20059;-67
2022/07/30 02:30:25;;;;;;;7.80;3.95;;;;;;;20.48;56.37;101714.53;5104160;28;20056;-67
2022/07/30 02:32:59;;;;;;;11.65;4.80;;;;;;;20.46;56.10;101712.06;5114748;28;20067;-67
2022/07/30 02:35:29;;;;;;;13.85;4.40;;;;;;;20.45;55.97;101710.41;5114532;28;20047;-67
2022/07/30 02:37:59;;;;;;;7.53;3.42;;;;;;;20.45;55.92;101721.34;5114714;28;20055;-67
2022/07/30 02:40:28;;;;;;;7.88;2.95;;;;;;;20.29;55.72;101697.75;5113005;28;20062;-67
2022/07/30 02:42:59;;;;;;;11.23;4.13;;;;;;;20.29;55.88;101701.31;5114346;28;20073;-66
2022/07/30 02:45:29;;;;;;;8.10;3.10;;;;;;;20.42;55.91;101721.88;5103865;28;20130;-67
2022/07/30 02:48:00;;;;;;;4.38;3.17;;;;;;;20.41;55.76;101721.06;5112466;28;20083;-67
2022/07/30 02:50:30;;;;;;;9.85;4.10;;;;;;;20.40;56.00;101724.88;5107304;28;20120;-67
2022/07/30 02:53:00;;;;;;;6.07;3.55;;;;;;;20.33;56.00;101707.06;5112051;28;20082;-67
2022/07/30 02:55:32;;;;;;;10.25;3.80;;;;;;;20.38;56.01;101720.72;5100589;28;20053;-67
2022/07/30 02:58:04;;;;;;;8.27;4.03;;;;;;;20.37;56.11;101724.56;5113608;28;20079;-67
2022/07/30 03:00:33;;;;;;;14.52;4.88;;;;;;;20.34;56.21;101717.72;5110283;28;20472;-67
2022/07/30 03:03:04;;;;;;;9.48;4.68;;;;;;;20.32;56.43;101725.34;5113096;28;20063;-66
2022/07/30 03:05:33;;;;;;;7.50;4.50;;;;;;;20.31;56.48;101731.91;5115516;28;20051;-66
2022/07/30 03:08:02;;;;;;;6.20;3.70;;;;;;;20.30;56.34;101740.34;5103219;28;20051;-67
2022/07/30 03:10:31;;;;;;;9.75;5.00;;;;;;;20.18;56.38;101717.91;5116758;28;20082;-67
2022/07/30 03:13:02;;;;;;;6.88;3.85;;;;;;;20.29;56.42;101731.34;5106747;28;20079;-67
2022/07/30 03:15:30;;;;;;;7.20;4.25;;;;;;;20.12;56.24;101709.69;5117147;28;20048;-67
2022/07/30 03:18:01;;;;;;;14.15;4.45;;;;;;;20.25;56.48;101738.41;5108950;28;20079;-67
2022/07/30 03:20:31;;;;;;;12.73;5.32;;;;;;;20.23;56.41;101737.03;5117159;28;20048;-67
2022/07/30 03:23:02;;;;;;;9.38;5.07;;;;;;;20.22;56.46;101732.66;5107771;28;20059;-66
2022/07/30 03:25:31;;;;;;;11.63;4.50;;;;;;;20.18;56.69;101728.81;5116279;28;20070;-66
2022/07/30 03:28:02;;;;;;;8.75;4.65;;;;;;;20.18;56.64;101726.91;5113619;28;20048;-67
2022/07/30 03:30:31;;;;;;;8.98;4.40;;;;;;;20.17;56.74;101728.00;5108429;28;20094;-66
2022/07/30 03:32:59;;;;;;;10.45;4.32;;;;;;;20.16;56.48;101729.09;5115986;28;20078;-66
2022/07/30 03:35:27;;;;;;;8.98;4.50;;;;;;;20.14;56.49;101721.16;5114040;28;20048;-67
2022/07/30 03:37:59;;;;;;;6.53;4.00;;;;;;;20.13;56.25;101732.34;5117351;28;20134;-68
2022/07/30 03:40:28;;;;;;;10.30;3.78;;;;;;;20.12;56.18;101731.50;5107716;28;20052;-67
2022/07/30 03:42:57;;;;;;;7.72;4.25;;;;;;;20.10;56.28;101727.41;5112675;28;20068;-67
2022/07/30 03:45:26;;;;;;;11.13;4.38;;;;;;;20.10;56.13;101730.97;5112124;28;20060;-67
2022/07/30 03:47:56;;;;;;;6.85;4.50;;;;;;;20.09;56.03;101732.03;5106593;28;20049;-67
2022/07/30 03:50:24;;;;;;;7.57;5.15;;;;;;;20.08;55.93;101733.13;5106724;28;20048;-66
2022/07/30 03:52:52;;;;;;;9.20;4.65;;;;;;;20.07;56.04;101731.47;5116059;28;20158;-66
2022/07/30 03:55:21;;;;;;;9.68;4.20;;;;;;;20.07;55.97;101738.84;5104817;28;20083;-66
2022/07/30 03:57:50;;;;;;;10.30;3.83;;;;;;;20.06;56.10;101748.94;5105262;28;20451;-67
2022/07/30 04:00:18;;;;;;;5.90;4.10;;;;;;;19.96;55.91;101735.22;5110151;28;20048;-66
2022/07/30 04:02:47;;;;;;;10.70;4.10;;;;;;;20.02;55.92;101745.09;5106276;28;20051;-66
2022/07/30 04:05:16;;;;;;;6.82;3.70;;;;;;;20.01;55.90;101751.63;5103346;28;20079;-66
2022/07/30 04:07:43;;;;;;;6.13;3.50;;;;;;;19.99;55.80;101744.81;5113274;28;20048;-66
2022/07/30 04:10:12;;;;;;;8.25;3.60;;;;;;;19.99;55.73;101751.09;5108357;28;20075;-66
2022/07/30 04:12:40;;;;;;;8.18;3.88;;;;;;;19.98;55.85;101756.81;5112760;28;20051;-67
2022/07/30 04:15:10;;;;;;;8.52;4.30;;;;;;;19.96;55.70;101756.25;5108597;28;20052;-67
2022/07/30 04:18:04;;;;;;;7.80;3.80;;;;;;;19.94;55.69;101759.22;5102842;28;20123;-66
2022/07/30 04:20:37;;;;;;;8.25;4.28;;;;;;;19.93;55.91;101765.78;5106199;28;20447;-66
2022/07/30 04:23:05;;;;;;;11.35;4.47;;;;;;;19.94;55.77;101761.97;5102185;28;20068;-66
2022/07/30 04:25:34;;;;;;;8.57;3.90;;;;;;;19.92;55.82;101766.84;5114144;28;20204;-66
2022/07/30 04:28:02;;;;;;;12.00;3.58;;;;;;;19.91;55.67;101767.94;5112312;28;20083;-66
2022/07/30 04:30:32;;;;;;;8.48;4.05;;;;;;;19.91;55.85;101765.22;5108233;28;20528;-66
2022/07/30 04:33:01;;;;;;;8.45;4.22;;;;;;;19.89;55.70;101767.38;5109543;28;20047;-65
2022/07/30 04:35:30;;;;;;;8.25;4.50;;;;;;;19.73;55.81;101739.16;5111512;28;20075;-66
2022/07/30 04:38:18;;;;;;;8.00;3.58;;;;;;;19.88;55.79;101768.47;5115574;28;20152;-66
2022/07/30 04:40:46;;;;;;;7.88;4.05;;;;;;;19.87;55.68;101775.00;5110683;28;20409;-66
2022/07/30 04:43:14;;;;;;;9.90;4.40;;;;;;;19.86;55.77;101778.00;5108367;28;20043;-66
2022/07/30 04:45:43;;;;;;;6.72;4.28;;;;;;;19.72;55.66;101755.78;5110110;28;20052;-66
2022/07/30 04:48:12;;;;;;;7.10;4.53;;;;;;;19.83;55.72;101787.53;5106866;28;20044;-66
2022/07/30 04:50:42;;;;;;;10.25;4.15;;;;;;;19.68;56.16;101768.31;5103874;28;20055;-66
2022/07/30 04:53:11;;;;;;;9.07;4.20;;;;;;;19.64;55.98;101761.72;5108720;28;20036;-66
2022/07/30 04:55:43;;;;;;;8.07;4.18;;;;;;;19.81;56.04;101797.88;5105654;28;20045;-66
2022/07/30 04:58:13;;;;;;;8.07;3.97;;;;;;;19.74;56.09;101789.91;5110928;28;20091;-66
2022/07/30 05:00:43;;;;;;;11.23;5.05;;;;;;;19.79;56.12;101800.03;5106177;28;20043;-65
2022/07/30 05:03:14;;;;;;;8.02;4.20;;;;;;;19.78;56.03;101801.94;5110045;28;20044;-66
2022/07/30 05:05:42;;;;;;;7.40;4.20;;;;;;;19.77;56.05;101805.75;5114425;28;20086;-66
2022/07/30 05:08:15;;;;;;;7.03;3.75;;;;;;;19.76;56.04;101800.56;5101830;28;20048;-67
2022/07/30 05:10:43;;;;;;;6.68;3.88;;;;;;;19.76;56.01;101801.38;5114568;28;20058;-66
2022/07/30 05:13:13;;;;;;;9.75;4.20;;;;;;;19.75;56.31;101801.63;5103996;28;20072;-66
2022/07/30 05:15:43;;;;;;;9.70;4.65;;;;;;;19.73;56.43;101799.16;5113975;28;20047;-66
2022/07/30 05:18:13;;;;;;;9.13;4.35;;;;;;;19.73;56.44;101795.63;5111132;28;20058;-66
2022/07/30 05:20:40;;;;;;;9.15;4.50;;;;;;;19.70;56.47;101785.22;5109339;28;20044;-66
2022/07/30 05:23:08;;;;;;;8.25;4.18;;;;;;;19.70;56.95;101793.41;5107224;28;20041;-66
2022/07/30 05:25:36;;;;;;;9.00;3.85;;;;;;;19.69;56.53;101798.03;5113382;28;20079;-66
2022/07/30 05:28:04;;;;;;;12.25;4.05;;;;;;;19.69;56.59;101803.50;5112246;28;20052;-66
2022/07/30 05:30:32;;;;;;;7.13;3.88;;;;;;;19.56;56.33;101773.09;5102644;28;20071;-66
2022/07/30 05:33:00;;;;;;;6.07;3.40;;;;;;;19.69;56.64;101805.41;5110617;28;20116;-66
2022/07/30 05:35:43;;;;;;;6.63;3.30;;;;;;;19.66;55.94;101806.75;5102664;28;20063;-66
2022/07/30 05:38:11;;;;;;;5.38;3.00;;;;;;;19.69;56.00;101806.22;5115542;28;20063;-66
2022/07/30 05:40:39;;;;;;;11.00;3.63;;;;;;;19.69;56.00;101806.22;5110060;28;20055;-66
2022/07/30 05:43:07;;;;;;;5.95;3.45;;;;;;;19.71;55.81;101812.25;5103644;28;20048;-66
2022/07/30 05:45:35;;;;;;;8.02;3.58;;;;;;;19.72;55.98;101808.44;5110205;28;20192;-66
2022/07/30 05:48:04;;;;;;;6.55;3.47;;;;;;;19.73;56.29;101815.53;5115262;28;20075;-66
2022/07/30 05:50:32;;;;;;;10.10;3.58;;;;;;;19.75;56.37;101816.09;5102356;28;20074;-66
2022/07/30 05:53:01;;;;;;;7.95;3.33;;;;;;;19.62;56.39;101789.25;5113155;28;20054;-66
2022/07/30 05:55:29;;;;;;;8.30;4.00;;;;;;;19.77;56.47;101805.75;5105237;28;20076;-65
2022/07/30 05:58:02;;;;;;;7.13;3.60;;;;;;;19.78;56.75;101817.47;5110905;28;20094;-65
2022/07/30 06:00:29;;;;;;;5.75;3.33;;;;;;;19.80;56.57;101816.13;5111823;28;20066;-65
2022/07/30 06:02:57;;;;;;;6.82;3.03;;;;;;;19.80;56.51;101816.13;5115875;28;20052;-65
2022/07/30 06:05:25;;;;;;;7.28;3.15;;;;;;;19.82;56.76;101824.06;5107559;28;20075;-65
2022/07/30 06:07:53;;;;;;;9.77;4.00;;;;;;;19.81;56.59;101820.50;5112428;28;20059;-65
2022/07/30 06:10:22;;;;;;;6.03;3.05;;;;;;;19.81;56.70;101823.25;5118121;28;20043;-66
2022/07/30 06:12:50;;;;;;;7.00;3.22;;;;;;;19.80;56.82;101816.13;5115002;28;20059;-66
2022/07/30 06:15:18;;;;;;;8.93;3.38;;;;;;;19.70;56.93;101805.16;5111103;28;20044;-66
2022/07/30 06:17:53;;;;;;;7.80;3.22;;;;;;;19.70;56.89;101810.59;5107428;28;20059;-66
2022/07/30 06:20:29;;;;;;;6.95;3.45;;;;;;;19.81;57.00;101828.69;5114186;28;20119;-66
2022/07/30 06:22:56;;;;;;;7.80;3.22;;;;;;;19.82;57.27;101827.63;5115442;28;20109;-66
2022/07/30 06:25:26;;;;;;;6.88;3.20;;;;;;;19.84;57.44;101827.34;5113312;28;20047;-66
2022/07/30 06:27:54;;;;;;;6.78;3.35;;;;;;;19.86;57.66;101830.66;5116078;28;20048;-66
2022/07/30 06:30:21;;;;;;;9.57;3.28;;;;;;;19.88;57.69;101833.13;5117905;28;20048;-66
2022/07/30 06:32:57;;;;;;;6.97;2.97;;;;;;;19.90;57.47;101837.22;5116593;28;20047;-66
2022/07/30 06:35:25;;;;;;;6.72;3.60;;;;;;;19.87;57.67;101828.75;5103844;28;20107;-66
2022/07/30 06:37:53;;;;;;;8.60;3.15;;;;;;;19.94;57.68;101838.34;5119015;28;20055;-66
2022/07/30 06:40:35;;;;;;;6.55;3.25;;;;;;;19.98;57.56;101841.38;5107988;28;20054;-66
2022/07/30 06:43:03;;;;;;;6.65;3.28;;;;;;;20.01;57.54;101844.41;5119885;28;20073;-66
2022/07/30 06:45:31;;;;;;;8.85;3.83;;;;;;;20.02;57.64;101842.50;5113197;28;20052;-66
2022/07/30 06:47:59;;;;;;;7.22;3.08;;;;;;;20.05;57.80;101847.44;5119305;28;20498;-66
2022/07/30 06:50:27;;;;;;;6.30;2.97;;;;;;;20.07;57.68;101845.28;5106661;28;20071;-66
2022/07/30 06:52:55;;;;;;;6.30;3.08;;;;;;;20.08;57.65;101849.66;5107702;28;20051;-66
2022/07/30 06:55:24;;;;;;;8.93;3.40;;;;;;;20.10;57.49;101839.31;5109661;28;20087;-66
2022/07/30 06:57:53;;;;;;;8.60;3.10;;;;;;;20.11;57.52;101839.03;5109969;28;20056;-66
2022/07/30 07:00:21;;;;;;;6.15;2.88;;;;;;;20.09;57.36;101840.38;5112715;28;20055;-66
2022/07/30 07:02:49;;;;;;;7.13;2.63;;;;;;;20.02;57.63;101831.59;5113084;28;20090;-66
2022/07/30 07:05:17;;;;;;;6.45;3.08;;;;;;;20.17;57.41;101852.72;5113113;28;20098;-66
2022/07/30 07:07:45;;;;;;;5.15;2.50;;;;;;;20.18;57.34;101854.38;5113447;28;20044;-66
2022/07/30 07:10:25;;;;;;;10.65;3.70;;;;;;;20.19;57.14;101850.56;5108088;28;20191;-66
2022/07/30 07:12:55;;;;;;;9.02;2.70;;;;;;;20.17;57.18;101853.56;5101992;28;20052;-67
2022/07/30 07:15:23;;;;;;;6.10;2.55;;;;;;;20.04;57.19;101826.69;5115478;28;20070;-66
2022/07/30 07:18:05;;;;;;;5.35;2.55;;;;;;;20.09;57.03;101840.38;5111065;28;20048;-66
2022/07/30 07:20:33;;;;;;;7.22;2.85;;;;;;;20.20;56.98;101863.94;5109152;28;20064;-66
2022/07/30 07:23:02;;;;;;;7.50;2.75;;;;;;;20.20;56.84;101858.50;5112435;28;20044;-66
2022/07/30 07:25:38;;;;;;;7.05;2.72;;;;;;;20.19;56.88;101856.84;5111205;28;20078;-66
2022/07/30 07:28:08;;;;;;;6.20;2.30;;;;;;;20.20;56.81;101849.47;5113702;28;20059;-66
2022/07/30 07:30:39;;;;;;;6.68;2.47;;;;;;;20.18;56.62;101844.28;5111509;28;20098;-66
2022/07/30 07:33:08;;;;;;;6.78;2.70;;;;;;;20.18;56.80;101843.47;5112637;28;20150;-66
2022/07/30 07:35:36;;;;;;;7.57;2.25;;;;;;;20.18;56.72;101860.66;5110768;28;20051;-66
2022/07/30 07:38:15;;;;;;;5.65;2.38;;;;;;;20.18;56.60;101851.66;5115882;28;20047;-66
2022/07/30 07:40:43;;;;;;;6.82;2.47;;;;;;;20.17;56.53;101863.66;5111223;28;20048;-66
2022/07/30 07:43:13;;;;;;;8.75;2.72;;;;;;;20.14;56.63;101851.34;5108699;28;20097;-66
2022/07/30 07:45:41;;;;;;;3.78;2.10;;;;;;;20.16;56.37;101857.38;5110723;28;20044;-65
2022/07/30 07:48:09;;;;;;;4.18;1.85;;;;;;;20.17;56.39;101855.47;5097640;28;20051;-65
2022/07/30 07:50:38;;;;;;;6.57;2.47;;;;;;;20.15;56.31;101855.72;5107749;28;20059;-65
2022/07/30 07:53:06;;;;;;;5.15;2.47;;;;;;;20.16;56.40;101854.63;5114203;28;20059;-66
2022/07/30 07:55:33;;;;;;;6.47;2.30;;;;;;;20.16;56.33;101854.63;5109767;28;20078;-65
2022/07/30 07:58:01;;;;;;;4.70;2.17;;;;;;;20.17;56.32;101853.56;5104357;28;20058;-65
2022/07/30 08:00:32;;;;;;;4.90;2.50;;;;;;;20.04;56.25;101832.16;5112802;28;20063;-66
2022/07/30 08:03:00;;;;;;;4.65;2.33;;;;;;;20.18;56.20;101846.19;5101458;28;20484;-65
2022/07/30 08:05:28;;;;;;;6.93;2.10;;;;;;;20.19;56.09;101854.13;5113062;28;20425;-66
2022/07/30 08:08:16;;;;;;;4.82;2.42;;;;;;;20.20;56.04;101855.75;5094456;28;20052;-66
2022/07/30 08:10:44;;;;;;;3.85;2.20;;;;;;;20.20;56.19;101850.31;5114112;28;20082;-66
2022/07/30 08:13:12;;;;;;;6.75;2.35;;;;;;;20.23;56.13;101859.88;5106973;28;20140;-66
2022/07/30 08:16:02;;;;;;;4.50;2.55;;;;;;;20.22;56.08;101853.59;5109739;28;20052;-66
2022/07/30 08:18:29;;;;;;;4.95;2.53;;;;;;;20.23;56.24;101855.25;5106174;28;20054;-67
2022/07/30 08:20:57;;;;;;;9.10;3.30;;;;;;;20.24;56.25;101854.16;5111088;28;20048;-67
2022/07/30 08:23:25;;;;;;;5.70;2.22;;;;;;;20.25;56.28;101850.34;5113237;28;20044;-67
2022/07/30 08:25:53;;;;;;;6.00;2.53;;;;;;;20.28;56.08;101854.44;5101950;28;20048;-67
2022/07/30 08:28:21;;;;;;;4.13;2.28;;;;;;;20.29;56.17;101845.19;5108635;28;20040;-67
2022/07/30 08:31:04;;;;;;;7.22;2.58;;;;;;;20.30;56.01;101844.91;5108963;28;20048;-67
2022/07/30 08:33:32;;;;;;;5.30;2.28;;;;;;;20.31;55.96;101854.75;5109292;28;20047;-65
2022/07/30 08:36:01;;;;;;;3.90;1.98;;;;;;;20.32;55.65;101845.47;5102730;28;20078;-65
2022/07/30 08:38:37;;;;;;;5.55;1.92;;;;;;;20.34;55.46;101850.66;5111921;28;20052;-66
2022/07/30 08:41:04;;;;;;;4.88;2.38;;;;;;;20.35;55.41;101853.13;5111258;28;20048;-66
2022/07/30 08:43:35;;;;;;;5.78;2.22;;;;;;;20.37;55.24;101850.97;5106831;28;20052;-66
2022/07/30 08:46:08;;;;;;;4.40;1.85;;;;;;;20.40;55.14;101849.66;5108306;28;20062;-65
2022/07/30 08:48:36;;;;;;;5.90;2.60;;;;;;;20.41;55.03;101841.19;5110120;28;20048;-65
2022/07/30 08:51:05;;;;;;;2.92;1.92;;;;;;;20.43;54.87;101844.50;5104311;28;20048;-66
2022/07/30 08:53:34;;;;;;;6.53;1.90;;;;;;;20.45;54.91;101839.59;5102291;28;20052;-65
2022/07/30 08:56:02;;;;;;;4.07;1.90;;;;;;;20.49;54.83;101847.25;5111904;28;20048;-65
2022/07/30 08:58:32;;;;;;;5.28;2.30;;;;;;;20.51;54.94;101845.91;5109777;28;20066;-65
2022/07/30 09:01:01;;;;;;;5.80;2.05;;;;;;;20.53;54.97;101851.94;5110960;28;20052;-66
2022/07/30 09:03:31;;;;;;;4.50;2.28;;;;;;;20.55;54.63;101844.28;5103185;28;20094;-66
2022/07/30 09:06:00;;;;;;;8.07;1.90;;;;;;;20.56;54.39;101845.94;5104347;28;20113;-66
2022/07/30 09:08:28;;;;;;;4.25;1.70;;;;;;;20.58;54.32;101840.19;5102047;28;20049;-66
2022/07/30 09:10:56;;;;;;;3.35;1.83;;;;;;;20.61;54.29;101845.13;5111755;28;20123;-66
2022/07/30 09:13:26;;;;;;;3.08;1.80;;;;;;;20.63;54.43;101843.78;5107759;28;20409;-66
2022/07/30 09:15:54;;;;;;;4.22;1.80;;;;;;;20.66;54.38;101847.91;5108421;28;20075;-66
2022/07/30 09:18:33;;;;;;;3.72;1.73;;;;;;;20.69;54.40;101852.84;5110338;28;20120;-66
2022/07/30 09:21:13;;;;;;;4.38;2.13;;;;;;;20.70;54.30;101854.47;5112392;28;20382;-66
2022/07/30 09:23:58;;;;;;;3.33;1.70;;;;;;;20.71;54.17;101856.94;5111430;28;20126;-66
2022/07/30 09:26:26;;;;;;;7.75;2.03;;;;;;;20.72;54.33;101863.22;5110806;28;20055;-65
2022/07/30 09:28:53;;;;;;;4.13;1.83;;;;;;;20.72;54.15;101861.31;5104206;28;20051;-65
2022/07/30 09:31:22;;;;;;;3.85;1.92;;;;;;;20.76;54.08;101865.16;5110637;28;20052;-65
2022/07/30 09:33:51;;;;;;;5.68;2.20;;;;;;;20.77;54.08;101866.81;5109790;28;20481;-65
2022/07/30 09:36:19;;;;;;;6.28;2.05;;;;;;;20.78;53.89;101871.19;5112084;28;20063;-65
2022/07/30 09:38:50;;;;;;;4.88;1.58;;;;;;;20.80;53.75;101868.19;5102404;28;20056;-65
2022/07/30 09:41:21;;;;;;;4.50;1.77;;;;;;;20.67;53.64;101838.63;5113411;28;20070;-66
2022/07/30 09:44:06;;;;;;;4.10;2.00;;;;;;;20.82;53.54;101857.78;5109222;28;20058;-65
2022/07/30 09:46:52;;;;;;;2.95;1.80;;;;;;;20.83;53.41;101859.44;5102923;28;20074;-66
2022/07/30 09:49:23;;;;;;;3.35;1.73;;;;;;;20.85;53.50;101867.38;5104287;28;20071;-66
2022/07/30 09:51:52;;;;;;;7.25;2.05;;;;;;;20.82;53.37;101855.06;5109480;28;20052;-66
2022/07/30 09:54:24;;;;;;;4.60;1.98;;;;;;;20.76;53.36;101843.31;5114219;28;20048;-65
2022/07/30 09:57:06;;;;;;;4.38;2.00;;;;;;;20.88;53.56;101859.47;5102903;28;20116;-66
2022/07/30 09:59:53;;;;;;;3.65;1.75;;;;;;;20.87;53.76;101849.63;5108018;28;20052;-65
2022/07/30 10:02:28;;;;;;;7.32;2.15;;;;;;;20.92;53.33;101835.97;5112594;28;20047;-66
2022/07/30 10:05:10;;;;;;;7.57;2.15;;;;;;;20.94;53.15;101839.25;5100579;28;20111;-66
2022/07/30 10:07:48;;;;;;;4.10;1.95;;;;;;;20.98;53.36;101839.56;5107047;28;20052;-66
2022/07/30 10:10:19;;;;;;;;;;;;;;;20.98;53.38;101832.19;5103127;28;20476;-66
2022/07/30 10:12:50;;;;;;;5.32;2.30;;;;;;;20.92;53.54;101827.78;5103584;28;19966;-66
2022/07/30 10:15:20;;;;;;;4.75;1.73;;;;;;;21.06;53.36;101841.78;5111907;28;20069;-65
2022/07/30 10:17:49;;;;;;;5.13;1.77;;;;;;;21.08;53.18;101837.69;5097632;28;20044;-65
2022/07/30 10:20:19;;;;;;;3.72;1.65;;;;;;;21.10;53.05;101837.41;5111815;28;20111;-66
2022/07/30 10:22:47;;;;;;;5.00;1.83;;;;;;;20.96;53.13;101809.75;5105769;28;20048;-66
2022/07/30 10:25:36;;;;;;;8.88;1.73;;;;;;;21.15;53.01;101833.88;5107787;28;20058;-66
2022/07/30 10:28:21;;;;;;;5.60;1.80;;;;;;;21.21;53.25;101841.00;5108247;28;20051;-66
2022/07/30 10:30:51;;;;;;;7.85;2.53;;;;;;;21.27;53.21;101838.03;5106908;28;20449;-66
2022/07/30 10:33:22;;;;;;;4.78;2.22;;;;;;;21.33;52.95;101836.97;5110582;28;20180;-66
2022/07/30 10:36:10;;;;;;;4.40;1.98;;;;;;;21.35;52.90;101832.06;5100668;28;20048;-66
2022/07/30 10:38:41;;;;;;;5.93;1.63;;;;;;;21.38;53.15;101838.91;5108432;28;20477;-66
2022/07/30 10:41:17;;;;;;;4.45;1.90;;;;;;;21.43;52.95;101827.97;5109763;28;20521;-66
2022/07/30 10:44:33;;;;;;;5.30;1.80;;;;;;;21.40;53.07;101823.84;5098876;28;20055;-67
2022/07/30 10:47:04;;;;;;;4.35;2.20;;;;;;;21.50;53.05;101841.38;5101193;28;20506;-66
2022/07/30 10:49:34;;;;;;;2.95;1.65;;;;;;;21.52;52.71;101831.00;5110842;28;20147;-65
2022/07/30 10:52:10;;;;;;;4.82;1.73;;;;;;;21.58;52.59;101836.19;5112370;28;20086;-66
2022/07/30 10:54:43;;;;;;;3.78;1.80;;;;;;;21.62;52.47;101833.75;5116251;28;20044;-66
2022/07/30 10:57:14;;;;;;;3.20;1.65;;;;;;;21.66;51.94;101835.66;5110500;28;20067;-66
2022/07/30 11:00:11;;;;;;;4.22;1.67;;;;;;;21.72;52.17;101840.03;5110353;28;20052;-66
2022/07/30 11:03:16;;;;;;;3.72;1.73;;;;;;;21.75;51.89;101830.47;5107727;28;20138;-66
2022/07/30 11:05:46;;;;;;;5.75;1.55;;;;;;;21.80;52.08;101827.75;5116200;28;20047;-66
2022/07/30 11:08:37;;;;;;;5.75;1.50;;;;;;;21.85;51.75;101825.00;5107569;28;20048;-66
2022/07/30 11:11:45;;;;;;;3.35;1.80;;;;;;;21.89;51.47;101828.84;5111729;28;20555;-66
2022/07/30 11:14:56;;;;;;;5.03;1.60;;;;;;;21.92;50.73;101819.25;5102212;28;20056;-66
2022/07/30 11:17:23;;;;;;;2.90;1.65;;;;;;;21.96;51.04;101823.09;5110866;28;20139;-66
2022/07/30 11:20:11;;;;;;;2.42;1.52;;;;;;;21.97;50.08;101828.28;5112717;28;20044;-66
2022/07/30 11:22:43;;;;;;;4.18;1.63;;;;;;;22.01;50.51;101823.09;5110456;28;20083;-66
2022/07/30 11:25:42;;;;;;;5.38;2.00;;;;;;;22.06;50.60;101820.38;5115445;28;20047;-66
2022/07/30 11:28:35;;;;;;;6.50;1.90;;;;;;;22.11;49.52;101823.09;5114326;28;20052;-66
2022/07/30 11:31:04;;;;;;;4.68;1.77;;;;;;;22.14;49.46;101819.00;5110074;28;20078;-66
2022/07/30 11:33:37;;;;;;;3.90;1.75;;;;;;;22.18;50.43;101809.97;5110857;28;20109;-66
2022/07/30 11:36:08;;;;;;;3.80;1.60;;;;;;;22.09;49.77;101792.44;5111721;28;20048;-66
2022/07/30 11:38:51;;;;;;;3.72;1.90;;;;;;;22.27;50.20;101812.97;5112617;28;20097;-67
2022/07/30 11:41:21;;;;;;;2.05;1.25;;;;;;;22.31;49.95;101817.59;5112269;28;20051;-67
2022/07/30 11:44:09;;;;;;;4.25;1.80;;;;;;;22.33;48.90;101817.31;5110093;28;20044;-66
2022/07/30 11:46:48;;;;;;;3.80;1.83;;;;;;;22.35;48.37;101807.75;5106913;28;20048;-66
2022/07/30 11:49:16;;;;;;;4.72;1.55;;;;;;;22.38;48.17;101809.94;5110392;28;20047;-66